sensor_id;sensor_type;location;lat;lon;timestamp;P1;durP1;ratioP1;P2;durP2;ratioP2
7162;SDS011;3623;47.098;15.446;2023-04-12T00:00:56;1.08;;;0.98;;
7162;SDS011;3623;47.098;15.446;2023-04-12T00:03:23;1.38;;;1.27;;
7162;SDS011;3623;47.098;15.446;2023-04-12T00:05:51;0.95;;;0.95;;
7162;SDS011;3623;47.098;15.446;2023-04-12T00:08:19;0.90;;;0.90;;
7162;SDS011;3623;47.098;15.446;2023-04-12T00:10:49;1.25;;;0.85;;
7162;SDS011;3623;47.098;15.446;2023-04-12T00:13:18;2.72;;;0.95;;
7162;SDS011;3623;47.098;15.446;2023-04-12T00:15:45;0.98;;;0.98;;
7162;SDS011;3623;47.098;15.446;2023-04-12T00:18:12;9.52;;;1.23;;
7162;SDS011;3623;47.098;15.446;2023-04-12T00:20:39;1.75;;;0.80;;
7162;SDS011;3623;47.098;15.446;2023-04-12T00:23:06;1.30;;;0.98;;
7162;SDS011;3623;47.098;15.446;2023-04-12T00:25:34;0.88;;;0.80;;
7162;SDS011;3623;47.098;15.446;2023-04-12T00:28:02;1.23;;;1.13;;
7162;SDS011;3623;47.098;15.446;2023-04-12T00:30:31;1.23;;;1.02;;
7162;SDS011;3623;47.098;15.446;2023-04-12T00:32:58;0.90;;;0.90;;
7162;SDS011;3623;47.098;15.446;2023-04-12T00:35:25;0.90;;;0.90;;
7162;SDS011;3623;47.098;15.446;2023-04-12T00:37:52;1.17;;;1.08;;
7162;SDS011;3623;47.098;15.446;2023-04-12T00:40:20;1.02;;;0.95;;
7162;SDS011;3623;47.098;15.446;2023-04-12T00:42:47;1.10;;;1.00;;
7162;SDS011;3623;47.098;15.446;2023-04-12T00:45:14;1.55;;;1.08;;
7162;SDS011;3623;47.098;15.446;2023-04-12T00:47:42;1.15;;;1.08;;
7162;SDS011;3623;47.098;15.446;2023-04-12T00:50:10;1.10;;;1.00;;
7162;SDS011;3623;47.098;15.446;2023-04-12T00:52:37;1.08;;;1.08;;
7162;SDS011;3623;47.098;15.446;2023-04-12T00:55:06;1.88;;;0.93;;
7162;SDS011;3623;47.098;15.446;2023-04-12T00:57:35;0.82;;;0.82;;
7162;SDS011;3623;47.098;15.446;2023-04-12T01:00:04;1.20;;;1.10;;
7162;SDS011;3623;47.098;15.446;2023-04-12T01:02:36;1.00;;;1.00;;
7162;SDS011;3623;47.098;15.446;2023-04-12T01:05:06;1.10;;;1.05;;
7162;SDS011;3623;47.098;15.446;2023-04-12T01:07:39;1.35;;;0.80;;
7162;SDS011;3623;47.098;15.446;2023-04-12T01:10:17;0.98;;;0.98;;
7162;SDS011;3623;47.098;15.446;2023-04-12T01:12:54;0.90;;;0.90;;
7162;SDS011;3623;47.098;15.446;2023-04-12T01:15:31;0.80;;;0.80;;
7162;SDS011;3623;47.098;15.446;2023-04-12T01:18:01;3.15;;;1.20;;
7162;SDS011;3623;47.098;15.446;2023-04-12T01:20:32;1.75;;;1.05;;
7162;SDS011;3623;47.098;15.446;2023-04-12T01:23:13;0.90;;;0.90;;
7162;SDS011;3623;47.098;15.446;2023-04-12T01:26:02;1.05;;;0.90;;
7162;SDS011;3623;47.098;15.446;2023-04-12T01:28:40;1.30;;;1.20;;
7162;SDS011;3623;47.098;15.446;2023-04-12T01:31:08;0.80;;;0.80;;
7162;SDS011;3623;47.098;15.446;2023-04-12T01:33:37;1.15;;;1.10;;
7162;SDS011;3623;47.098;15.446;2023-04-12T01:36:08;0.93;;;0.93;;
7162;SDS011;3623;47.098;15.446;2023-04-12T01:38:38;0.98;;;0.98;;
7162;SDS011;3623;47.098;15.446;2023-04-12T01:41:06;1.13;;;1.08;;
7162;SDS011;3623;47.098;15.446;2023-04-12T01:43:40;0.80;;;0.80;;
7162;SDS011;3623;47.098;15.446;2023-04-12T01:46:07;0.93;;;0.93;;
7162;SDS011;3623;47.098;15.446;2023-04-12T01:48:36;0.95;;;0.95;;
7162;SDS011;3623;47.098;15.446;2023-04-12T01:51:04;0.98;;;0.98;;
7162;SDS011;3623;47.098;15.446;2023-04-12T01:53:38;1.30;;;1.20;;
7162;SDS011;3623;47.098;15.446;2023-04-12T01:56:13;0.90;;;0.90;;
7162;SDS011;3623;47.098;15.446;2023-04-12T01:58:45;3.35;;;1.23;;
7162;SDS011;3623;47.098;15.446;2023-04-12T02:01:14;1.73;;;1.55;;
7162;SDS011;3623;47.098;15.446;2023-04-12T02:03:43;1.27;;;1.23;;
7162;SDS011;3623;47.098;15.446;2023-04-12T02:06:13;1.67;;;1.10;;
7162;SDS011;3623;47.098;15.446;2023-04-12T02:08:44;1.20;;;1.10;;
7162;SDS011;3623;47.098;15.446;2023-04-12T02:11:11;1.30;;;1.15;;
7162;SDS011;3623;47.098;15.446;2023-04-12T02:13:38;1.17;;;1.10;;
7162;SDS011;3623;47.098;15.446;2023-04-12T02:16:07;1.30;;;1.17;;
7162;SDS011;3623;47.098;15.446;2023-04-12T02:18:38;1.55;;;1.10;;
7162;SDS011;3623;47.098;15.446;2023-04-12T02:21:06;5.43;;;0.93;;
7162;SDS011;3623;47.098;15.446;2023-04-12T02:23:33;2.05;;;1.15;;
7162;SDS011;3623;47.098;15.446;2023-04-12T02:26:00;1.27;;;1.17;;
7162;SDS011;3623;47.098;15.446;2023-04-12T02:28:28;1.05;;;1.02;;
7162;SDS011;3623;47.098;15.446;2023-04-12T02:30:55;1.27;;;1.20;;
7162;SDS011;3623;47.098;15.446;2023-04-12T02:33:23;1.13;;;1.00;;
7162;SDS011;3623;47.098;15.446;2023-04-12T02:35:52;1.00;;;1.00;;
7162;SDS011;3623;47.098;15.446;2023-04-12T02:38:21;1.00;;;1.00;;
7162;SDS011;3623;47.098;15.446;2023-04-12T02:40:48;1.20;;;1.10;;
7162;SDS011;3623;47.098;15.446;2023-04-12T02:43:15;1.63;;;1.10;;
7162;SDS011;3623;47.098;15.446;2023-04-12T02:45:42;1.20;;;1.20;;
7162;SDS011;3623;47.098;15.446;2023-04-12T02:48:09;1.73;;;1.27;;
7162;SDS011;3623;47.098;15.446;2023-04-12T02:50:38;3.28;;;1.83;;
7162;SDS011;3623;47.098;15.446;2023-04-12T02:53:05;1.70;;;1.23;;
7162;SDS011;3623;47.098;15.446;2023-04-12T02:55:32;1.10;;;1.00;;
7162;SDS011;3623;47.098;15.446;2023-04-12T02:58:01;1.40;;;1.30;;
7162;SDS011;3623;47.098;15.446;2023-04-12T03:00:28;1.25;;;1.20;;
7162;SDS011;3623;47.098;15.446;2023-04-12T03:02:55;2.13;;;1.98;;
7162;SDS011;3623;47.098;15.446;2023-04-12T03:05:23;2.03;;;1.85;;
7162;SDS011;3623;47.098;15.446;2023-04-12T03:07:54;2.00;;;1.90;;
7162;SDS011;3623;47.098;15.446;2023-04-12T03:10:21;1.80;;;1.67;;
7162;SDS011;3623;47.098;15.446;2023-04-12T03:12:48;1.77;;;1.55;;
7162;SDS011;3623;47.098;15.446;2023-04-12T03:15:15;3.20;;;1.80;;
7162;SDS011;3623;47.098;15.446;2023-04-12T03:17:43;3.20;;;1.58;;
7162;SDS011;3623;47.098;15.446;2023-04-12T03:20:10;2.80;;;1.83;;
7162;SDS011;3623;47.098;15.446;2023-04-12T03:22:38;1.52;;;1.35;;
7162;SDS011;3623;47.098;15.446;2023-04-12T03:25:07;1.50;;;1.40;;
7162;SDS011;3623;47.098;15.446;2023-04-12T03:27:35;1.98;;;1.55;;
7162;SDS011;3623;47.098;15.446;2023-04-12T03:30:02;1.73;;;1.60;;
7162;SDS011;3623;47.098;15.446;2023-04-12T03:32:30;1.38;;;1.35;;
7162;SDS011;3623;47.098;15.446;2023-04-12T03:34:58;2.08;;;1.65;;
7162;SDS011;3623;47.098;15.446;2023-04-12T03:37:25;1.30;;;1.27;;
7162;SDS011;3623;47.098;15.446;2023-04-12T03:39:52;1.63;;;1.52;;
7162;SDS011;3623;47.098;15.446;2023-04-12T03:42:20;3.00;;;1.52;;
7162;SDS011;3623;47.098;15.446;2023-04-12T03:44:47;1.60;;;1.50;;
7162;SDS011;3623;47.098;15.446;2023-04-12T03:47:16;1.45;;;1.35;;
7162;SDS011;3623;47.098;15.446;2023-04-12T03:49:43;3.42;;;1.40;;
7162;SDS011;3623;47.098;15.446;2023-04-12T03:52:12;1.98;;;1.50;;
7162;SDS011;3623;47.098;15.446;2023-04-12T03:54:39;1.42;;;1.33;;
7162;SDS011;3623;47.098;15.446;2023-04-12T03:57:06;1.77;;;1.60;;
7162;SDS011;3623;47.098;15.446;2023-04-12T03:59:35;1.67;;;1.38;;
7162;SDS011;3623;47.098;15.446;2023-04-12T04:02:02;1.45;;;1.35;;
7162;SDS011;3623;47.098;15.446;2023-04-12T04:04:29;1.85;;;1.75;;
7162;SDS011;3623;47.098;15.446;2023-04-12T04:06:56;2.55;;;1.70;;
7162;SDS011;3623;47.098;15.446;2023-04-12T04:09:23;2.35;;;2.00;;
7162;SDS011;3623;47.098;15.446;2023-04-12T04:11:50;5.72;;;1.60;;
7162;SDS011;3623;47.098;15.446;2023-04-12T04:14:17;1.95;;;1.85;;
7162;SDS011;3623;47.098;15.446;2023-04-12T04:16:45;2.00;;;1.90;;
7162;SDS011;3623;47.098;15.446;2023-04-12T04:19:13;6.00;;;1.70;;
7162;SDS011;3623;47.098;15.446;2023-04-12T04:21:40;2.22;;;2.08;;
7162;SDS011;3623;47.098;15.446;2023-04-12T04:24:08;1.88;;;1.73;;
7162;SDS011;3623;47.098;15.446;2023-04-12T04:26:37;2.28;;;1.98;;
7162;SDS011;3623;47.098;15.446;2023-04-12T04:29:04;1.80;;;1.70;;
7162;SDS011;3623;47.098;15.446;2023-04-12T04:31:31;2.50;;;2.30;;
7162;SDS011;3623;47.098;15.446;2023-04-12T04:34:02;3.50;;;2.15;;
7162;SDS011;3623;47.098;15.446;2023-04-12T04:36:31;2.20;;;1.95;;
7162;SDS011;3623;47.098;15.446;2023-04-12T04:38:59;5.95;;;2.15;;
7162;SDS011;3623;47.098;15.446;2023-04-12T04:41:26;2.78;;;2.33;;
7162;SDS011;3623;47.098;15.446;2023-04-12T04:43:53;10.50;;;2.28;;
7162;SDS011;3623;47.098;15.446;2023-04-12T04:46:20;2.47;;;2.33;;
7162;SDS011;3623;47.098;15.446;2023-04-12T04:48:47;2.92;;;2.50;;
7162;SDS011;3623;47.098;15.446;2023-04-12T04:51:17;2.50;;;2.30;;
7162;SDS011;3623;47.098;15.446;2023-04-12T04:53:44;3.50;;;3.20;;
7162;SDS011;3623;47.098;15.446;2023-04-12T04:56:11;3.28;;;2.80;;
7162;SDS011;3623;47.098;15.446;2023-04-12T04:58:38;2.40;;;2.25;;
7162;SDS011;3623;47.098;15.446;2023-04-12T05:01:05;5.38;;;2.20;;
7162;SDS011;3623;47.098;15.446;2023-04-12T05:03:32;5.00;;;2.55;;
7162;SDS011;3623;47.098;15.446;2023-04-12T05:06:01;2.75;;;2.55;;
7162;SDS011;3623;47.098;15.446;2023-04-12T05:08:29;3.00;;;2.42;;
7162;SDS011;3623;47.098;15.446;2023-04-12T05:10:56;2.10;;;2.00;;
7162;SDS011;3623;47.098;15.446;2023-04-12T05:13:23;2.40;;;1.70;;
7162;SDS011;3623;47.098;15.446;2023-04-12T05:15:50;2.03;;;1.92;;
7162;SDS011;3623;47.098;15.446;2023-04-12T05:18:18;2.60;;;2.13;;
7162;SDS011;3623;47.098;15.446;2023-04-12T05:20:45;2.30;;;2.10;;
7162;SDS011;3623;47.098;15.446;2023-04-12T05:23:12;2.50;;;2.30;;
7162;SDS011;3623;47.098;15.446;2023-04-12T05:25:45;1.98;;;1.88;;
7162;SDS011;3623;47.098;15.446;2023-04-12T05:28:14;7.22;;;2.70;;
7162;SDS011;3623;47.098;15.446;2023-04-12T05:30:41;1.85;;;1.73;;
7162;SDS011;3623;47.098;15.446;2023-04-12T05:33:09;1.60;;;1.50;;
7162;SDS011;3623;47.098;15.446;2023-04-12T05:35:36;2.88;;;2.30;;
7162;SDS011;3623;47.098;15.446;2023-04-12T05:38:03;2.45;;;2.25;;
7162;SDS011;3623;47.098;15.446;2023-04-12T05:40:31;1.80;;;1.70;;
7162;SDS011;3623;47.098;15.446;2023-04-12T05:43:01;5.00;;;1.90;;
7162;SDS011;3623;47.098;15.446;2023-04-12T05:45:28;1.92;;;1.83;;
7162;SDS011;3623;47.098;15.446;2023-04-12T05:47:56;1.85;;;1.75;;
7162;SDS011;3623;47.098;15.446;2023-04-12T05:50:23;2.05;;;1.50;;
7162;SDS011;3623;47.098;15.446;2023-04-12T05:52:50;1.70;;;1.60;;
7162;SDS011;3623;47.098;15.446;2023-04-12T05:55:17;2.40;;;1.42;;
7162;SDS011;3623;47.098;15.446;2023-04-12T05:57:45;2.00;;;1.88;;
7162;SDS011;3623;47.098;15.446;2023-04-12T06:00:14;3.00;;;2.13;;
7162;SDS011;3623;47.098;15.446;2023-04-12T06:02:43;1.65;;;1.55;;
7162;SDS011;3623;47.098;15.446;2023-04-12T06:05:10;2.05;;;1.85;;
7162;SDS011;3623;47.098;15.446;2023-04-12T06:07:38;2.08;;;1.98;;
7162;SDS011;3623;47.098;15.446;2023-04-12T06:10:06;3.42;;;2.05;;
7162;SDS011;3623;47.098;15.446;2023-04-12T06:12:34;2.45;;;1.70;;
7162;SDS011;3623;47.098;15.446;2023-04-12T06:15:01;2.20;;;2.00;;
7162;SDS011;3623;47.098;15.446;2023-04-12T06:17:29;3.92;;;2.08;;
7162;SDS011;3623;47.098;15.446;2023-04-12T06:19:56;2.10;;;1.60;;
7162;SDS011;3623;47.098;15.446;2023-04-12T06:22:23;4.97;;;2.30;;
7162;SDS011;3623;47.098;15.446;2023-04-12T06:24:50;1.90;;;1.80;;
7162;SDS011;3623;47.098;15.446;2023-04-12T06:27:17;7.57;;;2.67;;
7162;SDS011;3623;47.098;15.446;2023-04-12T06:29:46;5.45;;;1.83;;
7162;SDS011;3623;47.098;15.446;2023-04-12T06:32:13;2.25;;;1.80;;
7162;SDS011;3623;47.098;15.446;2023-04-12T06:34:42;1.90;;;1.80;;
7162;SDS011;3623;47.098;15.446;2023-04-12T06:37:09;1.85;;;1.65;;
7162;SDS011;3623;47.098;15.446;2023-04-12T06:39:37;2.95;;;1.75;;
7162;SDS011;3623;47.098;15.446;2023-04-12T06:42:04;1.80;;;1.70;;
7162;SDS011;3623;47.098;15.446;2023-04-12T06:44:31;2.22;;;2.03;;
7162;SDS011;3623;47.098;15.446;2023-04-12T06:46:58;3.42;;;2.10;;
7162;SDS011;3623;47.098;15.446;2023-04-12T06:49:25;3.25;;;1.85;;
7162;SDS011;3623;47.098;15.446;2023-04-12T06:51:54;4.35;;;1.85;;
7162;SDS011;3623;47.098;15.446;2023-04-12T06:54:21;4.65;;;2.35;;
7162;SDS011;3623;47.098;15.446;2023-04-12T06:56:48;2.03;;;1.92;;
7162;SDS011;3623;47.098;15.446;2023-04-12T06:59:15;2.42;;;2.28;;
7162;SDS011;3623;47.098;15.446;2023-04-12T07:01:42;4.18;;;1.45;;
7162;SDS011;3623;47.098;15.446;2023-04-12T07:04:10;2.22;;;2.05;;
7162;SDS011;3623;47.098;15.446;2023-04-12T07:06:37;1.85;;;1.65;;
7162;SDS011;3623;47.098;15.446;2023-04-12T07:09:06;2.17;;;1.70;;
7162;SDS011;3623;47.098;15.446;2023-04-12T07:11:33;2.53;;;2.33;;
7162;SDS011;3623;47.098;15.446;2023-04-12T07:14:00;2.78;;;1.67;;
7162;SDS011;3623;47.098;15.446;2023-04-12T07:16:28;1.70;;;1.60;;
7162;SDS011;3623;47.098;15.446;2023-04-12T07:18:56;4.03;;;1.60;;
7162;SDS011;3623;47.098;15.446;2023-04-12T07:21:24;2.53;;;1.55;;
7162;SDS011;3623;47.098;15.446;2023-04-12T07:23:51;1.45;;;1.35;;
7162;SDS011;3623;47.098;15.446;2023-04-12T07:26:20;3.85;;;1.77;;
7162;SDS011;3623;47.098;15.446;2023-04-12T07:28:47;2.03;;;1.58;;
7162;SDS011;3623;47.098;15.446;2023-04-12T07:31:14;1.65;;;1.45;;
7162;SDS011;3623;47.098;15.446;2023-04-12T07:33:41;1.88;;;1.13;;
7162;SDS011;3623;47.098;15.446;2023-04-12T07:36:08;1.27;;;1.17;;
7162;SDS011;3623;47.098;15.446;2023-04-12T07:38:36;1.73;;;1.02;;
7162;SDS011;3623;47.098;15.446;2023-04-12T07:41:03;2.30;;;1.70;;
7162;SDS011;3623;47.098;15.446;2023-04-12T07:43:31;1.38;;;1.27;;
7162;SDS011;3623;47.098;15.446;2023-04-12T07:45:58;1.33;;;1.13;;
7162;SDS011;3623;47.098;15.446;2023-04-12T07:48:28;2.67;;;1.20;;
7162;SDS011;3623;47.098;15.446;2023-04-12T07:50:55;3.55;;;1.63;;
7162;SDS011;3623;47.098;15.446;2023-04-12T07:53:23;1.20;;;1.20;;
7162;SDS011;3623;47.098;15.446;2023-04-12T07:55:51;1.55;;;1.45;;
7162;SDS011;3623;47.098;15.446;2023-04-12T07:58:19;5.15;;;1.30;;
7162;SDS011;3623;47.098;15.446;2023-04-12T08:00:49;3.33;;;1.92;;
7162;SDS011;3623;47.098;15.446;2023-04-12T08:03:17;1.30;;;1.20;;
7162;SDS011;3623;47.098;15.446;2023-04-12T08:05:44;5.78;;;1.30;;
7162;SDS011;3623;47.098;15.446;2023-04-12T08:08:17;1.52;;;1.20;;
7162;SDS011;3623;47.098;15.446;2023-04-12T08:10:44;1.40;;;1.10;;
7162;SDS011;3623;47.098;15.446;2023-04-12T08:13:11;2.53;;;1.30;;
7162;SDS011;3623;47.098;15.446;2023-04-12T08:15:38;1.33;;;1.23;;
7162;SDS011;3623;47.098;15.446;2023-04-12T08:18:07;1.35;;;1.25;;
7162;SDS011;3623;47.098;15.446;2023-04-12T08:20:34;1.75;;;1.58;;
7162;SDS011;3623;47.098;15.446;2023-04-12T08:23:04;1.70;;;1.60;;
7162;SDS011;3623;47.098;15.446;2023-04-12T08:25:31;1.65;;;1.55;;
7162;SDS011;3623;47.098;15.446;2023-04-12T08:27:58;1.90;;;1.80;;
7162;SDS011;3623;47.098;15.446;2023-04-12T08:30:25;3.60;;;2.47;;
7162;SDS011;3623;47.098;15.446;2023-04-12T08:32:53;1.95;;;1.85;;
7162;SDS011;3623;47.098;15.446;2023-04-12T08:35:21;2.65;;;2.45;;
7162;SDS011;3623;47.098;15.446;2023-04-12T08:37:49;4.22;;;1.90;;
7162;SDS011;3623;47.098;15.446;2023-04-12T08:40:16;4.72;;;2.60;;
7162;SDS011;3623;47.098;15.446;2023-04-12T08:42:45;4.80;;;2.60;;
7162;SDS011;3623;47.098;15.446;2023-04-12T08:45:13;2.20;;;2.10;;
7162;SDS011;3623;47.098;15.446;2023-04-12T08:47:40;5.35;;;3.25;;
7162;SDS011;3623;47.098;15.446;2023-04-12T08:50:09;4.80;;;2.95;;
7162;SDS011;3623;47.098;15.446;2023-04-12T08:52:40;2.42;;;2.22;;
7162;SDS011;3623;47.098;15.446;2023-04-12T08:55:08;2.72;;;1.90;;
7162;SDS011;3623;47.098;15.446;2023-04-12T08:57:38;1.90;;;1.70;;
7162;SDS011;3623;47.098;15.446;2023-04-12T09:00:07;1.98;;;1.40;;
7162;SDS011;3623;47.098;15.446;2023-04-12T09:02:35;3.50;;;2.47;;
7162;SDS011;3623;47.098;15.446;2023-04-12T09:05:03;2.50;;;2.20;;
7162;SDS011;3623;47.098;15.446;2023-04-12T09:07:31;1.73;;;1.63;;
7162;SDS011;3623;47.098;15.446;2023-04-12T09:10:00;5.55;;;1.75;;
7162;SDS011;3623;47.098;15.446;2023-04-12T09:12:28;1.38;;;1.27;;
7162;SDS011;3623;47.098;15.446;2023-04-12T09:15:04;3.45;;;1.40;;
7162;SDS011;3623;47.098;15.446;2023-04-12T09:17:34;3.60;;;1.92;;
7162;SDS011;3623;47.098;15.446;2023-04-12T09:20:09;2.53;;;1.65;;
7162;SDS011;3623;47.098;15.446;2023-04-12T09:22:50;1.90;;;1.60;;
7162;SDS011;3623;47.098;15.446;2023-04-12T09:25:34;4.72;;;1.52;;
7162;SDS011;3623;47.098;15.446;2023-04-12T09:28:03;1.92;;;1.67;;
7162;SDS011;3623;47.098;15.446;2023-04-12T09:30:43;1.75;;;1.65;;
7162;SDS011;3623;47.098;15.446;2023-04-12T09:33:15;2.80;;;1.58;;
7162;SDS011;3623;47.098;15.446;2023-04-12T09:35:43;2.20;;;2.10;;
7162;SDS011;3623;47.098;15.446;2023-04-12T09:38:10;2.95;;;1.83;;
7162;SDS011;3623;47.098;15.446;2023-04-12T09:40:39;1.75;;;1.65;;
7162;SDS011;3623;47.098;15.446;2023-04-12T09:43:06;2.00;;;1.80;;
7162;SDS011;3623;47.098;15.446;2023-04-12T09:45:34;2.50;;;2.30;;
7162;SDS011;3623;47.098;15.446;2023-04-12T09:48:03;3.53;;;1.70;;
7162;SDS011;3623;47.098;15.446;2023-04-12T09:50:32;2.60;;;2.22;;
7162;SDS011;3623;47.098;15.446;2023-04-12T09:52:59;3.00;;;2.33;;
7162;SDS011;3623;47.098;15.446;2023-04-12T09:55:28;4.20;;;2.25;;
7162;SDS011;3623;47.098;15.446;2023-04-12T09:58:00;3.50;;;2.00;;
7162;SDS011;3623;47.098;15.446;2023-04-12T10:00:31;2.33;;;2.00;;
7162;SDS011;3623;47.098;15.446;2023-04-12T10:02:59;3.97;;;1.73;;
7162;SDS011;3623;47.098;15.446;2023-04-12T10:05:27;1.97;;;1.73;;
7162;SDS011;3623;47.098;15.446;2023-04-12T10:07:55;2.20;;;2.00;;
7162;SDS011;3623;47.098;15.446;2023-04-12T10:10:22;2.97;;;1.70;;
7162;SDS011;3623;47.098;15.446;2023-04-12T10:12:50;2.33;;;1.83;;
7162;SDS011;3623;47.098;15.446;2023-04-12T10:15:19;2.20;;;1.97;;
7162;SDS011;3623;47.098;15.446;2023-04-12T10:17:47;4.60;;;2.30;;
7162;SDS011;3623;47.098;15.446;2023-04-12T10:20:15;4.50;;;2.30;;
7162;SDS011;3623;47.098;15.446;2023-04-12T10:22:45;2.13;;;2.00;;
7162;SDS011;3623;47.098;15.446;2023-04-12T10:25:13;4.03;;;2.17;;
7162;SDS011;3623;47.098;15.446;2023-04-12T10:27:42;2.90;;;2.00;;
7162;SDS011;3623;47.098;15.446;2023-04-12T10:30:24;2.40;;;2.20;;
7162;SDS011;3623;47.098;15.446;2023-04-12T10:33:09;2.80;;;1.70;;
7162;SDS011;3623;47.098;15.446;2023-04-12T10:35:48;2.60;;;2.10;;
7162;SDS011;3623;47.098;15.446;2023-04-12T10:38:20;2.17;;;2.07;;
7162;SDS011;3623;47.098;15.446;2023-04-12T10:41:12;3.20;;;2.10;;
7162;SDS011;3623;47.098;15.446;2023-04-12T10:43:40;2.10;;;2.00;;
7162;SDS011;3623;47.098;15.446;2023-04-12T10:49:18;5.90;;;2.00;;
7162;SDS011;3623;47.098;15.446;2023-04-12T10:54:42;2.40;;;2.30;;
7162;SDS011;3623;47.098;15.446;2023-04-12T11:00:10;2.50;;;2.33;;
7162;SDS011;3623;47.098;15.446;2023-04-12T11:08:27;4.00;;;2.17;;
7162;SDS011;3623;47.098;15.446;2023-04-12T11:10:59;2.73;;;2.00;;
7162;SDS011;3623;47.098;15.446;2023-04-12T11:13:27;3.10;;;2.30;;
7162;SDS011;3623;47.098;15.446;2023-04-12T11:15:55;2.87;;;2.50;;
7162;SDS011;3623;47.098;15.446;2023-04-12T11:18:26;1.93;;;1.73;;
7162;SDS011;3623;47.098;15.446;2023-04-12T11:20:55;2.57;;;2.10;;
7162;SDS011;3623;47.098;15.446;2023-04-12T11:23:24;2.07;;;1.90;;
7162;SDS011;3623;47.098;15.446;2023-04-12T11:25:52;3.07;;;2.43;;
7162;SDS011;3623;47.098;15.446;2023-04-12T11:28:20;2.30;;;2.10;;
7162;SDS011;3623;47.098;15.446;2023-04-12T11:30:48;3.60;;;2.37;;
7162;SDS011;3623;47.098;15.446;2023-04-12T11:33:32;5.40;;;2.77;;
7162;SDS011;3623;47.098;15.446;2023-04-12T11:36:04;2.13;;;2.03;;
7162;SDS011;3623;47.098;15.446;2023-04-12T11:38:34;2.90;;;2.70;;
7162;SDS011;3623;47.098;15.446;2023-04-12T11:41:03;3.47;;;2.20;;
7162;SDS011;3623;47.098;15.446;2023-04-12T11:43:31;2.40;;;2.20;;
7162;SDS011;3623;47.098;15.446;2023-04-12T11:45:58;3.10;;;2.03;;
7162;SDS011;3623;47.098;15.446;2023-04-12T11:48:26;3.07;;;2.77;;
7162;SDS011;3623;47.098;15.446;2023-04-12T11:50:54;2.73;;;2.43;;
7162;SDS011;3623;47.098;15.446;2023-04-12T11:53:25;2.47;;;2.27;;
7162;SDS011;3623;47.098;15.446;2023-04-12T11:55:55;6.40;;;2.90;;
7162;SDS011;3623;47.098;15.446;2023-04-12T11:58:23;3.37;;;3.10;;
7162;SDS011;3623;47.098;15.446;2023-04-12T12:00:52;6.10;;;2.77;;
7162;SDS011;3623;47.098;15.446;2023-04-12T12:03:21;2.50;;;2.23;;
7162;SDS011;3623;47.098;15.446;2023-04-12T12:05:48;5.83;;;2.10;;
7162;SDS011;3623;47.098;15.446;2023-04-12T12:08:16;4.40;;;2.40;;
7162;SDS011;3623;47.098;15.446;2023-04-12T12:10:44;2.47;;;2.27;;
7162;SDS011;3623;47.098;15.446;2023-04-12T12:13:13;4.00;;;2.60;;
7162;SDS011;3623;47.098;15.446;2023-04-12T12:15:42;4.30;;;2.70;;
7162;SDS011;3623;47.098;15.446;2023-04-12T12:18:10;2.87;;;2.20;;
7162;SDS011;3623;47.098;15.446;2023-04-12T12:20:40;2.80;;;2.57;;
7162;SDS011;3623;47.098;15.446;2023-04-12T12:23:25;3.30;;;2.27;;
7162;SDS011;3623;47.098;15.446;2023-04-12T12:25:55;2.50;;;2.40;;
7162;SDS011;3623;47.098;15.446;2023-04-12T12:28:24;3.13;;;2.83;;
7162;SDS011;3623;47.098;15.446;2023-04-12T12:30:51;3.10;;;2.80;;
7162;SDS011;3623;47.098;15.446;2023-04-12T12:33:19;3.57;;;2.10;;
7162;SDS011;3623;47.098;15.446;2023-04-12T12:35:46;5.43;;;2.70;;
7162;SDS011;3623;47.098;15.446;2023-04-12T12:38:13;4.97;;;2.73;;
7162;SDS011;3623;47.098;15.446;2023-04-12T12:40:40;1.97;;;1.80;;
7162;SDS011;3623;47.098;15.446;2023-04-12T12:43:07;2.33;;;2.10;;
7162;SDS011;3623;47.098;15.446;2023-04-12T12:45:45;3.03;;;2.83;;
7162;SDS011;3623;47.098;15.446;2023-04-12T12:48:12;6.93;;;2.57;;
7162;SDS011;3623;47.098;15.446;2023-04-12T12:50:39;2.97;;;2.77;;
7162;SDS011;3623;47.098;15.446;2023-04-12T12:53:06;3.30;;;2.70;;
7162;SDS011;3623;47.098;15.446;2023-04-12T12:55:34;5.00;;;2.87;;
7162;SDS011;3623;47.098;15.446;2023-04-12T12:58:01;2.93;;;2.40;;
7162;SDS011;3623;47.098;15.446;2023-04-12T13:00:28;7.43;;;2.60;;
7162;SDS011;3623;47.098;15.446;2023-04-12T13:02:57;4.83;;;2.53;;
7162;SDS011;3623;47.098;15.446;2023-04-12T13:05:24;8.77;;;3.10;;
7162;SDS011;3623;47.098;15.446;2023-04-12T13:07:51;3.13;;;2.83;;
7162;SDS011;3623;47.098;15.446;2023-04-12T13:10:18;4.70;;;2.63;;
7162;SDS011;3623;47.098;15.446;2023-04-12T13:12:45;3.20;;;2.63;;
7162;SDS011;3623;47.098;15.446;2023-04-12T13:15:12;3.10;;;2.33;;
7162;SDS011;3623;47.098;15.446;2023-04-12T13:17:39;4.77;;;2.93;;
7162;SDS011;3623;47.098;15.446;2023-04-12T13:20:08;2.63;;;2.23;;
7162;SDS011;3623;47.098;15.446;2023-04-12T13:22:35;3.13;;;2.60;;
7162;SDS011;3623;47.098;15.446;2023-04-12T13:25:03;2.63;;;2.43;;
7162;SDS011;3623;47.098;15.446;2023-04-12T13:27:31;2.83;;;2.63;;
7162;SDS011;3623;47.098;15.446;2023-04-12T13:29:58;5.13;;;3.07;;
7162;SDS011;3623;47.098;15.446;2023-04-12T13:32:25;3.33;;;2.87;;
7162;SDS011;3623;47.098;15.446;2023-04-12T13:34:52;3.47;;;2.40;;
7162;SDS011;3623;47.098;15.446;2023-04-12T13:37:20;2.63;;;2.43;;
7162;SDS011;3623;47.098;15.446;2023-04-12T13:39:48;3.03;;;2.73;;
7162;SDS011;3623;47.098;15.446;2023-04-12T13:42:16;3.27;;;2.47;;
7162;SDS011;3623;47.098;15.446;2023-04-12T13:44:43;5.97;;;2.97;;
7162;SDS011;3623;47.098;15.446;2023-04-12T13:47:12;3.37;;;3.07;;
7162;SDS011;3623;47.098;15.446;2023-04-12T13:49:39;5.10;;;2.80;;
7162;SDS011;3623;47.098;15.446;2023-04-12T13:52:06;2.10;;;2.00;;
7162;SDS011;3623;47.098;15.446;2023-04-12T13:54:35;2.37;;;2.23;;
7162;SDS011;3623;47.098;15.446;2023-04-12T13:57:02;3.73;;;2.53;;
7162;SDS011;3623;47.098;15.446;2023-04-12T13:59:30;3.97;;;2.80;;
7162;SDS011;3623;47.098;15.446;2023-04-12T14:01:57;4.20;;;2.43;;
7162;SDS011;3623;47.098;15.446;2023-04-12T14:04:25;3.77;;;3.47;;
7162;SDS011;3623;47.098;15.446;2023-04-12T14:06:53;3.03;;;2.73;;
7162;SDS011;3623;47.098;15.446;2023-04-12T14:09:24;5.90;;;2.80;;
7162;SDS011;3623;47.098;15.446;2023-04-12T14:11:53;2.97;;;2.77;;
7162;SDS011;3623;47.098;15.446;2023-04-12T14:14:22;2.40;;;2.20;;
7162;SDS011;3623;47.098;15.446;2023-04-12T14:16:50;2.47;;;2.30;;
7162;SDS011;3623;47.098;15.446;2023-04-12T14:19:18;3.50;;;3.20;;
7162;SDS011;3623;47.098;15.446;2023-04-12T14:21:46;2.90;;;2.57;;
7162;SDS011;3623;47.098;15.446;2023-04-12T14:24:13;3.77;;;2.57;;
7162;SDS011;3623;47.098;15.446;2023-04-12T14:26:40;3.03;;;2.37;;
7162;SDS011;3623;47.098;15.446;2023-04-12T14:29:11;2.23;;;2.13;;
7162;SDS011;3623;47.098;15.446;2023-04-12T14:31:39;2.50;;;2.20;;
7162;SDS011;3623;47.098;15.446;2023-04-12T14:34:06;2.33;;;2.13;;
7162;SDS011;3623;47.098;15.446;2023-04-12T14:36:34;2.40;;;2.20;;
7162;SDS011;3623;47.098;15.446;2023-04-12T14:39:02;2.90;;;2.50;;
7162;SDS011;3623;47.098;15.446;2023-04-12T14:41:29;3.00;;;2.80;;
7162;SDS011;3623;47.098;15.446;2023-04-12T14:43:57;3.40;;;3.07;;
7162;SDS011;3623;47.098;15.446;2023-04-12T14:46:26;3.43;;;3.13;;
7162;SDS011;3623;47.098;15.446;2023-04-12T14:48:53;5.57;;;2.77;;
7162;SDS011;3623;47.098;15.446;2023-04-12T14:51:20;3.70;;;2.80;;
7162;SDS011;3623;47.098;15.446;2023-04-12T14:53:47;3.57;;;2.77;;
7162;SDS011;3623;47.098;15.446;2023-04-12T14:56:15;5.87;;;3.20;;
7162;SDS011;3623;47.098;15.446;2023-04-12T14:58:44;2.80;;;2.57;;
7162;SDS011;3623;47.098;15.446;2023-04-12T15:01:11;2.63;;;2.37;;
7162;SDS011;3623;47.098;15.446;2023-04-12T15:03:43;3.20;;;2.93;;
7162;SDS011;3623;47.098;15.446;2023-04-12T15:06:12;3.60;;;3.33;;
7162;SDS011;3623;47.098;15.446;2023-04-12T15:08:42;5.63;;;3.23;;
7162;SDS011;3623;47.098;15.446;2023-04-12T15:11:10;2.50;;;2.40;;
7162;SDS011;3623;47.098;15.446;2023-04-12T15:13:38;3.90;;;2.80;;
7162;SDS011;3623;47.098;15.446;2023-04-12T15:16:05;3.50;;;2.50;;
7162;SDS011;3623;47.098;15.446;2023-04-12T15:18:34;3.07;;;2.70;;
7162;SDS011;3623;47.098;15.446;2023-04-12T15:21:06;4.60;;;2.80;;
7162;SDS011;3623;47.098;15.446;2023-04-12T15:23:34;2.20;;;2.10;;